Etusivu
METAR-TAF:

METAR-TAF

Lentoasemat :

Moline, Illinois, Yhdysvallat

Leveyspiiri: 41-27-05N, Pituuspiiri: 090-30-53W, korkeus merenpinnasta: 179 m

Tämänhetkinen sää

Tämä raportti tehtiin 28 minuuttia sitten, kello 10.52 UTC
Tuuli 8 kn luoteesta
Lämpötila 2°C
Kosteus 80%
Ilmanpaine 1011 hPa
Näkyvyys: 16.1 km
Pilvistä 1400 ft:n korkeudessa

METAR: KMLI 181052Z AUTO 31008KT 10SM OVC014 02/M01 A2984 RMK AO2 SLP108 T00221006

Aika: 05:20 (11:20 UTC)

Sääennuste

Tämä raportti tehtiin 1 tunti ja 53 minuuttia sitten, kello 09.27 UTC
Ennuste voimassa 18. päivästä klo 09 UTC - 19. päivään klo 06 UTC
Tuuli 6 kn lännestä/luoteesta
Näkyvyys: 10 km
Pilvistä 1900 ft:n korkeudessa
From 18. päivästä klo 1700 UTC
Tuuli 4 kn etelästä
Näkyvyys: 10 km
Pilvistä 3000 ft:n korkeudessa

TAF: KMLI 180927Z 1809/1906 30006KT P6SM OVC019 FM181700 19004KT P6SM OVC030

Säähavainnot ja -ennusteet yli 4000 lentoasemalta (METAR- ja TAF-raportit).

Käytössä olevat sääasemat on merkitty karttaan keltaisilla ja punaisilla pisteillä.

Aseta hiiri pisteen päälle nähdäksesi sääaseman nimen.

Klikkaa sitten nähdäksesi säähavainnot ja -ennusteet.

Kartan vaihtaminen: klikkaa mustalla rastilla varustettuja vihreitä pisteitä, niin voit zoomata sisään; viivalla varustettua vihreää pistettä, niin voit zoomata ulos tai vihreitä nuolia, niin pääset viereisille kartoille.


METAR-TAF: